Amherst, Nebraska
Current Conditions -  °F | °C
As of 2:55 PM on Friday 19 Dec 2014 (Local Time) from KEAR Reporting Station
Overcast Overcast  
Wind Chill: 20°   Ceiling: 500
Heat Index: 30°   Visibility: 4mi
Dew Point: 28°   Wind: 13mph
Humidity: 93%   Direction: 190°S
Pressure: 30.06"   Gusts: NA
Location:  40.77°N, 99.27°W
Report Text: KEAR 192055Z 19011KT 4SM OVC005 M01/M02 A3006 RMK AO1 57024
Loading
Personal Weather Stations






























Interactive Weather Map New forecast layout! Learn more

10-Day Weather Forecast

Advertisements
Track Severe Weather on mobile